createdAt,value
2019-04-25T00:03:44.864Z,9.43
2019-04-25T00:14:28.833Z,9.36
2019-04-25T00:25:17.588Z,9.38
2019-04-25T00:35:56.463Z,9.43
2019-04-25T00:46:43.291Z,9.31
2019-04-25T00:57:26.038Z,9.33
2019-04-25T01:08:10.032Z,9.31
2019-04-25T01:18:53.668Z,9.28
2019-04-25T01:29:37.061Z,9.17
2019-04-25T01:40:20.143Z,9.10
2019-04-25T01:51:04.277Z,9.13
2019-04-25T02:01:48.993Z,9.11
2019-04-25T02:12:30.278Z,9.16
2019-04-25T02:23:14.503Z,9.16
2019-04-25T02:34:01.181Z,9.13
2019-04-25T02:44:44.543Z,9.06
2019-04-25T02:55:31.750Z,9.04
2019-04-25T03:06:12.290Z,9.01
2019-04-25T03:16:58.547Z,8.95
2019-04-25T03:27:38.877Z,8.84
2019-04-25T03:38:24.271Z,8.75
2019-04-25T03:49:06.069Z,8.64
2019-04-25T03:59:48.196Z,8.64
2019-04-25T04:10:33.250Z,8.62
2019-04-25T04:21:15.915Z,8.66
2019-04-25T04:31:57.304Z,8.77
2019-04-25T04:42:43.518Z,8.88
2019-04-25T04:53:26.805Z,9.03
2019-04-25T05:04:10.604Z,9.26
2019-04-25T05:14:54.266Z,10.03
2019-04-25T05:25:41.612Z,10.20
2019-04-25T05:36:23.861Z,9.76
2019-04-25T05:47:12.231Z,14.91
2019-04-25T05:57:54.621Z,12.25
2019-04-25T06:08:37.750Z,11.03
2019-04-25T06:19:25.209Z,13.13
2019-04-25T06:30:08.418Z,12.76
2019-04-25T06:40:50.695Z,11.58
2019-04-25T06:51:32.093Z,11.58
2019-04-25T07:02:16.942Z,11.79
2019-04-25T07:13:00.710Z,12.12
2019-04-25T07:23:38.373Z,12.49
2019-04-25T07:34:23.991Z,13.14
2019-04-25T07:45:05.980Z,13.36
2019-04-25T07:55:45.590Z,13.19
2019-04-25T08:06:29.383Z,13.39
2019-04-25T08:17:14.458Z,14.24
2019-04-25T08:27:59.184Z,15.25
2019-04-25T08:38:44.760Z,16.08
2019-04-25T08:49:18.482Z,16.52
2019-04-25T09:00:01.112Z,16.08
2019-04-25T09:10:45.784Z,15.92
2019-04-25T09:21:28.117Z,16.26
2019-04-25T09:32:11.772Z,16.46
2019-04-25T09:42:47.036Z,17.60
2019-04-25T09:53:29.378Z,18.01
2019-04-25T10:04:09.371Z,17.89
2019-04-25T10:14:54.276Z,18.43
2019-04-25T10:25:36.251Z,19.01
2019-04-25T10:36:12.091Z,19.03
2019-04-25T10:46:57.983Z,19.34
2019-04-25T10:57:45.165Z,19.35
2019-04-25T11:08:24.528Z,19.74
2019-04-25T11:19:06.273Z,19.83
2019-04-25T11:29:49.348Z,19.65
2019-04-25T11:40:34.615Z,19.47
2019-04-25T11:51:19.037Z,20.23
2019-04-25T12:01:57.417Z,20.37
2019-04-25T12:12:40.748Z,20.37
2019-04-25T12:23:23.395Z,20.27
2019-04-25T12:34:00.837Z,20.60
2019-04-25T12:44:43.473Z,20.78
2019-04-25T12:55:23.928Z,22.03
2019-04-25T13:06:00.870Z,22.04
2019-04-25T13:16:44.380Z,22.04
2019-04-25T13:27:26.849Z,22.60
2019-04-25T13:38:12.464Z,22.79
2019-04-25T13:48:56.886Z,22.60
2019-04-25T13:59:44.353Z,23.01
2019-04-25T14:10:26.469Z,22.92
2019-04-25T14:21:03.498Z,22.26
2019-04-25T14:31:48.567Z,22.28
2019-04-25T14:42:30.705Z,22.17
2019-04-25T14:53:14.743Z,22.04
2019-04-25T15:03:57.926Z,22.02
2019-04-25T15:14:44.329Z,22.16
2019-04-25T15:25:23.774Z,21.93
2019-04-25T15:36:04.955Z,21.53
2019-04-25T15:46:48.321Z,21.21
2019-04-25T15:57:23.432Z,20.87
2019-04-25T16:08:01.347Z,20.99
2019-04-25T16:18:38.289Z,20.97
2019-04-25T17:00:58.046Z,19.02
2019-04-25T17:11:36.081Z,18.47
2019-04-25T17:22:09.951Z,18.02
2019-04-25T17:32:53.534Z,17.67
2019-04-25T17:43:21.924Z,17.15
2019-04-25T17:54:03.161Z,16.88
2019-04-25T18:04:43.353Z,16.47
2019-04-25T18:15:22.589Z,16.14
2019-04-25T18:26:03.302Z,15.87
2019-04-25T18:36:43.129Z,15.62
2019-04-25T18:47:21.550Z,15.43
2019-04-25T18:58:04.472Z,15.33
2019-04-25T19:08:34.589Z,15.23
2019-04-25T19:19:15.489Z,15.11
2019-04-25T19:29:56.348Z,15.04
2019-04-25T19:40:34.378Z,15.00
2019-04-25T19:51:10.736Z,14.90
2019-04-25T20:01:52.730Z,14.82
2019-04-25T20:12:34.399Z,14.67
2019-04-25T20:23:09.352Z,14.64
2019-04-25T20:33:42.734Z,14.36
2019-04-25T20:44:19.672Z,14.44
2019-04-25T20:55:01.098Z,14.38
2019-04-25T21:05:38.228Z,14.30
2019-04-25T21:16:19.869Z,14.21
2019-04-25T21:27:02.686Z,14.08
2019-04-25T21:37:32.481Z,13.98
2019-04-25T21:48:12.945Z,13.76
2019-04-25T21:58:53.356Z,13.54
2019-04-25T22:09:35.682Z,13.44
2019-04-25T22:20:18.028Z,13.38
2019-04-25T22:31:03.459Z,13.17
2019-04-25T22:41:47.775Z,13.18
2019-04-25T22:52:29.258Z,13.05
2019-04-25T23:03:11.433Z,12.99
2019-04-25T23:13:54.746Z,12.92
2019-04-25T23:24:39.300Z,12.90
2019-04-25T23:35:30.808Z,12.86
2019-04-25T23:46:07.445Z,12.79
2019-04-25T23:56:50.698Z,12.58
